Time;durP1;ratioP1;P1;durP2;ratioP2;P2;SDS_P1;SDS_P2;PMS_P1;PMS_P2;Temp;Humidity;BMP_temperature;BMP_pressure;BME280_temperature;BME280_humidity;BME280_pressure;Samples;Min_cycle;Max_cycle;Signal;HPM_P1;HPM_P2
2024/01/22 00:00:12;;;;;;;0.60;0.60;;;;;;;2.59;52.50;97432.84;29395;216;63013;-55
2024/01/22 00:00:43;;;;;;;0.70;0.70;;;;;;;2.62;52.99;97435.06;29395;224;63015;-56
2024/01/22 00:01:14;;;;;;;0.60;0.60;;;;;;;2.63;52.52;97431.34;29395;230;63009;-56
2024/01/22 00:01:46;;;;;;;0.70;0.70;;;;;;;2.62;52.41;97421.69;29395;197;63005;-56
2024/01/22 00:02:17;;;;;;;0.70;0.70;;;;;;;2.59;52.48;97430.16;29395;202;63023;-56
2024/01/22 00:02:49;;;;;;;0.70;0.70;;;;;;;2.56;52.55;97429.81;29394;269;64009;-57
2024/01/22 00:03:20;;;;;;;0.60;0.60;;;;;;;2.55;52.72;97425.50;29395;281;63009;-56
2024/01/22 00:03:51;;;;;;;0.60;0.60;;;;;;;2.55;52.87;97425.50;29395;197;63004;-55
2024/01/22 00:04:24;;;;;;;0.62;0.62;;;;;;;2.53;52.79;97420.38;29395;212;63017;-56
2024/01/22 00:04:55;;;;;;;0.70;0.70;;;;;;;2.53;52.67;97417.69;29395;225;63004;-69
2024/01/22 00:05:27;;;;;;;0.60;0.60;;;;;;;2.51;52.62;97419.78;29395;264;63009;-56
2024/01/22 00:05:58;;;;;;;0.60;0.60;;;;;;;2.45;52.48;97409.97;29395;230;63004;-56
2024/01/22 00:06:29;;;;;;;0.60;0.60;;;;;;;2.45;53.28;97425.22;29395;219;63008;-56
2024/01/22 00:07:00;;;;;;;0.70;0.70;;;;;;;2.45;53.06;97425.22;29395;221;63004;-56
2024/01/22 00:07:32;;;;;;;0.70;0.70;;;;;;;2.45;53.20;97420.69;29395;225;63009;-56
2024/01/22 00:08:06;;;;;;;0.60;0.60;;;;;;;2.47;53.64;97423.97;29394;199;64009;-55
2024/01/22 00:08:37;;;;;;;0.60;0.60;;;;;;;2.46;53.19;97422.31;29395;342;63009;-56
2024/01/22 00:09:08;;;;;;;0.68;0.68;;;;;;;2.48;53.06;97416.72;29395;295;63005;-56
2024/01/22 00:09:40;;;;;;;0.60;0.60;;;;;;;2.47;53.24;97418.59;29395;248;63009;-56
2024/01/22 00:10:12;;;;;;;0.60;0.60;;;;;;;2.47;53.54;97417.78;29395;217;63005;-56
2024/01/22 00:10:43;;;;;;;0.60;0.60;;;;;;;2.43;52.93;97412.06;29395;214;63009;-55
2024/01/22 00:11:14;;;;;;;0.60;0.60;;;;;;;2.42;53.39;97415.81;29395;211;63005;-56
2024/01/22 00:11:46;;;;;;;0.70;0.70;;;;;;;2.41;53.32;97414.19;29395;218;63009;-56
2024/01/22 00:12:17;;;;;;;0.60;0.60;;;;;;;2.41;53.53;97419.53;29395;216;63010;-56
2024/01/22 00:12:48;;;;;;;0.70;0.70;;;;;;;2.39;53.52;97410.91;29395;197;63009;-56
2024/01/22 00:13:19;;;;;;;0.70;0.70;;;;;;;2.37;53.51;97415.69;29393;215;64009;-56
2024/01/22 00:13:51;;;;;;;0.60;0.60;;;;;;;2.35;53.89;97413.22;29395;279;63008;-56
2024/01/22 00:14:22;;;;;;;0.70;0.70;;;;;;;2.38;53.56;97408.47;29395;231;63004;-56
2024/01/22 00:14:53;;;;;;;0.85;0.85;;;;;;;2.43;52.75;97406.69;29395;221;63009;-56
2024/01/22 00:15:24;;;;;;;0.60;0.60;;;;;;;2.42;52.52;97405.09;29395;231;63005;-56
2024/01/22 00:15:56;;;;;;;0.70;0.70;;;;;;;2.39;53.10;97404.75;29395;219;63009;-55
2024/01/22 00:16:27;;;;;;;0.60;0.60;;;;;;;2.40;52.81;97401.84;29395;356;63005;-56
2024/01/22 00:16:58;;;;;;;0.70;0.70;;;;;;;2.42;52.88;97409.63;29395;197;63009;-56
2024/01/22 00:17:30;;;;;;;0.70;0.70;;;;;;;2.40;53.01;97395.66;29395;204;63005;-56
2024/01/22 00:18:02;;;;;;;0.70;0.70;;;;;;;2.41;53.10;97397.28;29395;199;63009;-56
2024/01/22 00:18:33;;;;;;;0.70;0.70;;;;;;;2.40;53.39;97396.47;29394;227;64009;-57
2024/01/22 00:19:04;;;;;;;0.60;0.60;;;;;;;2.40;53.62;97401.84;29395;291;63009;-56
2024/01/22 00:19:35;;;;;;;0.60;0.60;;;;;;;2.39;53.28;97394.84;29395;291;63004;-57
2024/01/22 00:20:08;;;;;;;0.70;0.70;;;;;;;2.39;53.38;97397.53;29395;298;63009;-56
2024/01/22 00:20:40;;;;;;;0.65;0.65;;;;;;;2.37;53.38;97396.94;29395;202;63004;-55
2024/01/22 00:21:11;;;;;;;0.70;0.70;;;;;;;2.39;54.01;97394.84;29395;210;63009;-55
2024/01/22 00:21:43;;;;;;;0.90;0.90;;;;;;;2.44;53.28;97397.62;29395;276;63004;-56
2024/01/22 00:22:14;;;;;;;0.60;0.60;;;;;;;2.44;53.40;97394.94;29395;249;63009;-56
2024/01/22 00:22:45;;;;;;;0.68;0.68;;;;;;;2.42;53.84;97399.75;29395;207;63005;-56
2024/01/22 00:23:17;;;;;;;0.70;0.70;;;;;;;2.39;53.57;97394.03;29395;277;63009;-56
2024/01/22 00:23:48;;;;;;;0.70;0.70;;;;;;;2.40;53.64;97401.84;29394;207;64009;-55
2024/01/22 00:24:19;;;;;;;0.70;0.70;;;;;;;2.38;53.62;97393.22;29395;214;63012;-55
2024/01/22 00:24:54;;;;;;;0.70;0.70;;;;;;;2.39;53.63;97394.84;29395;229;63005;-57
2024/01/22 00:25:26;;;;;;;1.77;1.77;;;;;;;2.41;53.41;97392.75;29395;231;63009;-56
2024/01/22 00:25:57;;;;;;;0.68;0.68;;;;;;;2.40;53.30;97396.47;29395;224;63005;-55
2024/01/22 00:26:28;;;;;;;0.68;0.68;;;;;;;2.37;53.51;97390.75;29395;211;63009;-55
2024/01/22 00:26:59;;;;;;;0.70;0.70;;;;;;;2.35;54.03;97394.47;29395;224;63004;-56
2024/01/22 00:27:30;;;;;;;0.70;0.70;;;;;;;2.32;54.01;97391.44;29395;296;63009;-55
2024/01/22 00:28:02;;;;;;;0.70;0.70;;;;;;;2.30;53.95;97385.50;29395;204;63004;-56
2024/01/22 00:28:34;;;;;;;0.60;0.60;;;;;;;2.29;53.89;97389.22;29395;206;63009;-56
2024/01/22 00:29:05;;;;;;;0.70;0.70;;;;;;;2.27;53.68;97388.63;29394;204;64008;-57
2024/01/22 00:29:37;;;;;;;0.70;0.70;;;;;;;2.28;53.47;97387.56;29395;197;63008;-56
2024/01/22 00:30:11;;;;;;;0.70;0.70;;;;;;;2.28;53.89;97387.56;29395;237;63005;-56
2024/01/22 00:30:42;;;;;;;0.70;0.70;;;;;;;2.28;54.16;97376.88;29395;301;63009;-57
2024/01/22 00:31:14;;;;;;;0.70;0.70;;;;;;;2.30;53.90;97374.78;29395;221;63005;-72
2024/01/22 00:31:45;;;;;;;0.70;0.70;;;;;;;2.35;52.96;97366.88;29394;197;64013;-57
2024/01/22 00:32:16;;;;;;;1.00;1.00;;;;;;;2.45;52.84;97358.25;29395;274;63005;-57
2024/01/22 00:32:47;;;;;;;0.65;0.65;;;;;;;2.47;52.79;97359.66;29395;292;63009;-56
2024/01/22 00:33:19;;;;;;;0.62;0.62;;;;;;;2.50;53.03;97358.41;29395;208;63005;-56
2024/01/22 00:33:50;;;;;;;0.60;0.60;;;;;;;2.49;52.98;97357.56;29395;220;63009;-57
2024/01/22 00:34:21;;;;;;;0.60;0.60;;;;;;;2.46;52.67;97352.69;29395;226;63004;-57
2024/01/22 00:34:52;;;;;;;0.80;0.80;;;;;;;2.44;53.09;97354.78;29395;293;63009;-56
2024/01/22 00:35:23;;;;;;;0.70;0.70;;;;;;;2.48;53.05;97355.13;29395;292;63004;-56
2024/01/22 00:35:54;;;;;;;0.60;0.60;;;;;;;2.50;52.92;97345.81;29395;198;63009;-56
2024/01/22 00:36:26;;;;;;;0.70;0.70;;;;;;;2.50;52.97;97343.13;29395;212;63004;-56
2024/01/22 00:36:57;;;;;;;0.70;0.70;;;;;;;2.46;53.04;97341.97;29394;222;64013;-56
2024/01/22 00:37:28;;;;;;;0.70;0.70;;;;;;;2.47;52.92;97340.91;29395;235;63005;-56
2024/01/22 00:37:59;;;;;;;0.70;0.70;;;;;;;2.45;52.93;97340.34;29395;227;63009;-55
2024/01/22 00:38:31;;;;;;;0.70;0.70;;;;;;;2.40;53.15;97342.91;29395;202;63005;-57
2024/01/22 00:39:02;;;;;;;1.35;1.35;;;;;;;2.39;53.33;97332.44;29395;202;63015;-57
2024/01/22 00:39:33;;;;;;;0.60;0.60;;;;;;;2.40;53.03;97337.56;29395;255;63005;-57
2024/01/22 00:40:06;;;;;;;0.70;0.70;;;;;;;2.37;53.29;97338.00;29395;293;63009;-56
2024/01/22 00:40:38;;;;;;;4.97;4.62;;;;;;;2.36;53.31;97328.34;29395;247;63004;-57
2024/01/22 00:41:09;;;;;;;0.65;0.65;;;;;;;2.33;53.42;97331.47;29395;294;63009;-56
2024/01/22 00:41:41;;;;;;;0.73;0.73;;;;;;;2.35;53.55;97332.06;29395;203;63004;-56
2024/01/22 00:42:12;;;;;;;0.70;0.70;;;;;;;2.34;53.46;97333.94;29394;225;64013;-55
2024/01/22 00:42:44;;;;;;;0.70;0.70;;;;;;;2.31;53.60;97328.22;29395;241;63004;-56
2024/01/22 00:43:16;;;;;;;0.70;0.70;;;;;;;2.29;53.78;97333.78;29395;235;63009;-56
2024/01/22 00:43:47;;;;;;;0.60;0.60;;;;;;;2.27;53.56;97337.75;29395;203;63004;-56
2024/01/22 00:44:18;;;;;;;0.70;0.70;;;;;;;2.25;53.66;97332.63;29395;216;63025;-55
2024/01/22 00:44:49;;;;;;;0.70;0.70;;;;;;;2.24;53.44;97338.19;29395;238;63004;-56
2024/01/22 00:45:21;;;;;;;0.60;0.60;;;;;;;2.20;53.80;97337.84;29395;217;63009;-71
2024/01/22 00:45:52;;;;;;;0.60;0.60;;;;;;;2.22;54.01;97334.94;29395;289;63005;-56
2024/01/22 00:46:23;;;;;;;0.60;0.60;;;;;;;2.22;53.90;97330.41;29394;215;64014;-56
2024/01/22 00:46:54;;;;;;;0.98;0.98;;;;;;;2.24;53.80;97331.00;29395;202;63005;-57
2024/01/22 00:47:27;;;;;;;0.70;0.70;;;;;;;2.23;53.96;97336.56;29395;207;63009;-56
2024/01/22 00:47:59;;;;;;;0.70;0.70;;;;;;;2.19;54.13;97335.38;29395;288;63005;-56
2024/01/22 00:48:30;;;;;;;0.70;0.70;;;;;;;2.14;54.27;97333.41;29395;210;63018;-57
2024/01/22 00:49:02;;;;;;;0.70;0.70;;;;;;;2.10;54.36;97342.09;29395;211;63004;-56
2024/01/22 00:49:36;;;;;;;0.60;0.60;;;;;;;2.06;54.71;97343.63;29395;197;63009;-56
2024/01/22 00:50:08;;;;;;;0.70;0.70;;;;;;;2.01;54.82;97341.63;29395;203;63004;-55
2024/01/22 00:50:39;;;;;;;1.12;1.12;;;;;;;1.99;55.32;97347.22;29395;331;63009;-56
2024/01/22 00:51:11;;;;;;;0.70;0.70;;;;;;;1.99;55.36;97352.56;29395;199;63004;-56
2024/01/22 00:51:42;;;;;;;0.60;0.60;;;;;;;1.96;55.20;97346.84;29394;203;64013;-56
2024/01/22 00:52:13;;;;;;;0.70;0.70;;;;;;;1.91;55.53;97342.16;29395;221;63004;-56
2024/01/22 00:52:46;;;;;;;0.70;0.70;;;;;;;1.88;55.54;97356.00;29395;202;63009;-56
2024/01/22 00:53:17;;;;;;;0.70;0.70;;;;;;;1.85;55.76;97348.41;29395;238;63005;-56
2024/01/22 00:53:48;;;;;;;0.68;0.68;;;;;;;1.86;55.68;97351.91;29395;238;63009;-70
2024/01/22 00:54:19;;;;;;;0.70;0.70;;;;;;;1.84;55.57;97349.47;29395;198;63005;-55
2024/01/22 00:54:51;;;;;;;0.70;0.70;;;;;;;1.82;55.62;97348.87;29395;202;63009;-57
2024/01/22 00:55:22;;;;;;;0.70;0.70;;;;;;;1.80;55.45;97348.28;29395;259;63005;-56
2024/01/22 00:55:54;;;;;;;0.70;0.70;;;;;;;1.78;55.67;97355.72;29395;200;63009;-55
2024/01/22 00:56:29;;;;;;;0.60;0.60;;;;;;;1.77;55.99;97354.06;29395;205;63004;-56
2024/01/22 00:57:00;;;;;;;0.60;0.60;;;;;;;1.76;55.89;97347.09;29394;236;64013;-56
2024/01/22 00:57:32;;;;;;;0.62;0.62;;;;;;;1.76;55.99;97346.28;29395;228;63004;-56
2024/01/22 00:58:04;;;;;;;0.62;0.62;;;;;;;1.79;55.79;97341.28;29395;228;63009;-57
2024/01/22 00:58:36;;;;;;;0.70;0.70;;;;;;;1.80;55.74;97336.75;29395;279;63004;-57
2024/01/22 00:59:07;;;;;;;0.70;0.70;;;;;;;1.80;56.25;97342.94;29395;199;63009;-56
2024/01/22 00:59:38;;;;;;;0.70;0.70;;;;;;;1.81;56.10;97344.56;29395;206;63005;-56
2024/01/22 01:00:11;;;;;;;0.70;0.70;;;;;;;1.79;56.09;97338.63;29395;238;63009;-55
2024/01/22 01:00:42;;;;;;;0.70;0.70;;;;;;;1.81;55.95;97335.72;29395;202;63005;-57
2024/01/22 01:01:14;;;;;;;0.70;0.70;;;;;;;1.82;55.82;97340.03;29395;233;63009;-57
2024/01/22 01:01:45;;;;;;;0.70;0.70;;;;;;;1.83;55.82;97342.47;29395;214;63005;-56
2024/01/22 01:02:16;;;;;;;0.70;0.70;;;;;;;1.87;55.71;97337.50;29394;277;64013;-57
2024/01/22 01:02:52;;;;;;;0.70;0.70;;;;;;;1.89;55.24;97333.56;29395;203;63005;-57
2024/01/22 01:03:23;;;;;;;0.70;0.70;;;;;;;1.92;55.37;97324.25;29395;238;63009;-68
2024/01/22 01:03:56;;;;;;;0.60;0.60;;;;;;;1.90;55.57;97327.16;29373;218;63004;-56
2024/01/22 01:04:28;;;;;;;0.68;0.68;;;;;;;1.90;55.73;97321.00;29395;196;63009;-56
2024/01/22 01:05:00;;;;;;;0.70;0.70;;;;;;;1.90;55.56;97315.63;29395;391;63004;-55
2024/01/22 01:05:34;;;;;;;0.70;0.70;;;;;;;1.89;55.75;97314.81;29395;218;63009;-55
2024/01/22 01:06:06;;;;;;;0.70;0.70;;;;;;;1.91;55.53;97311.91;29395;239;63016;-57
2024/01/22 01:06:38;;;;;;;0.60;0.60;;;;;;;1.91;55.57;97310.06;29395;239;63008;-56
2024/01/22 01:07:10;;;;;;;0.70;0.70;;;;;;;1.96;55.08;97302.16;29395;212;63005;-56
2024/01/22 01:07:44;;;;;;;0.70;0.70;;;;;;;1.93;55.13;97297.28;29394;199;64014;-57
2024/01/22 01:08:15;;;;;;;0.70;0.70;;;;;;;1.93;55.51;97301.81;29395;214;63005;-56
2024/01/22 01:08:46;;;;;;;0.68;0.68;;;;;;;1.93;55.42;97297.28;29395;304;63009;-56
2024/01/22 01:09:18;;;;;;;0.70;0.70;;;;;;;1.95;55.49;97292.50;29395;224;63005;-56
2024/01/22 01:09:49;;;;;;;1.33;1.08;;;;;;;2.00;55.22;97289.16;29395;211;63009;-55
2024/01/22 01:10:20;;;;;;;0.70;0.70;;;;;;;2.03;55.45;97291.38;29395;290;63005;-72
2024/01/22 01:10:52;;;;;;;0.60;0.60;;;;;;;2.03;55.34;97293.22;29395;216;63009;-57
2024/01/22 01:11:23;;;;;;;0.70;0.70;;;;;;;2.05;55.10;97296.50;29395;202;63004;-57
2024/01/22 01:11:54;;;;;;;0.70;0.70;;;;;;;2.01;55.38;97293.47;29395;214;63009;-56
2024/01/22 01:12:25;;;;;;;0.70;0.70;;;;;;;1.98;55.67;97302.75;29395;245;63004;-56
2024/01/22 01:12:57;;;;;;;0.70;0.70;;;;;;;1.94;55.57;97290.88;29394;197;64013;-56
2024/01/22 01:13:28;;;;;;;0.70;0.70;;;;;;;1.94;55.67;97295.41;29395;246;63004;-56
2024/01/22 01:13:59;;;;;;;0.70;0.70;;;;;;;1.90;55.74;97300.41;29395;246;63008;-56
2024/01/22 01:14:32;;;;;;;0.60;0.60;;;;;;;1.86;55.91;97303.75;29395;210;63005;-57
2024/01/22 01:15:08;;;;;;;0.65;0.65;;;;;;;1.84;55.99;97303.97;29395;230;63009;-56
2024/01/22 01:15:39;;;;;;;0.70;0.70;;;;;;;1.80;55.96;97305.47;29395;209;63005;-55
2024/01/22 01:16:10;;;;;;;0.60;0.60;;;;;;;1.77;56.34;97308.59;29395;226;63009;-55
2024/01/22 01:16:42;;;;;;;0.70;0.70;;;;;;;1.74;56.65;97300.19;29395;218;63005;-56
2024/01/22 01:17:13;;;;;;;0.60;0.60;;;;;;;1.71;56.72;97301.50;29395;218;63009;-56
2024/01/22 01:17:44;;;;;;;0.70;0.70;;;;;;;1.70;56.76;97305.22;29395;227;63005;-56
2024/01/22 01:18:15;;;;;;;0.70;0.70;;;;;;;1.75;56.22;97301.84;29394;220;64013;-56
2024/01/22 01:18:46;;;;;;;0.60;0.60;;;;;;;1.76;56.54;97303.47;29395;224;63004;-56
2024/01/22 01:19:18;;;;;;;0.68;0.68;;;;;;;1.75;56.41;97297.31;29395;228;63016;-56
2024/01/22 01:19:49;;;;;;;0.70;0.70;;;;;;;1.76;56.67;97298.13;29395;196;63004;-57
2024/01/22 01:20:21;;;;;;;0.70;0.70;;;;;;;1.74;56.65;97298.34;29395;387;63009;-68
2024/01/22 01:20:52;;;;;;;0.70;0.70;;;;;;;1.71;56.71;97301.50;29395;223;63004;-56
2024/01/22 01:21:23;;;;;;;0.70;0.70;;;;;;;1.70;56.90;97302.53;29395;236;63008;-57
2024/01/22 01:21:55;;;;;;;0.65;0.65;;;;;;;1.67;56.81;97300.31;29395;197;63005;-56
2024/01/22 01:22:26;;;;;;;0.70;0.70;;;;;;;1.66;56.83;97298.69;29395;228;63009;-56
2024/01/22 01:22:57;;;;;;;0.70;0.70;;;;;;;1.68;57.02;97299.28;29395;287;63005;-56
2024/01/22 01:23:28;;;;;;;0.70;0.70;;;;;;;1.69;56.88;97306.25;29394;239;64013;-54
2024/01/22 01:24:00;;;;;;;0.70;0.70;;;;;;;1.70;56.99;97307.06;29395;198;63005;-56
2024/01/22 01:24:31;;;;;;;0.70;0.70;;;;;;;1.69;57.03;97308.94;29395;212;63014;-56
2024/01/22 01:25:03;;;;;;;0.70;0.70;;;;;;;1.67;56.88;97308.34;29395;204;63005;-56
2024/01/22 01:25:36;;;;;;;0.70;0.70;;;;;;;1.64;57.17;97306.12;29395;208;63009;-57
2024/01/22 01:26:07;;;;;;;0.70;0.70;;;;;;;1.66;57.13;97309.38;29396;227;63019;-56
2024/01/22 01:26:44;;;;;;;0.70;0.70;;;;;;;1.66;57.07;97304.03;29395;217;63009;-55
2024/01/22 01:27:17;;;;;;;0.70;0.70;;;;;;;1.63;57.35;97315.19;29395;224;63004;-56
2024/01/22 01:27:50;;;;;;;0.62;0.62;;;;;;;1.57;57.36;97316.09;29394;207;64013;-56
2024/01/22 01:28:21;;;;;;;0.70;0.70;;;;;;;1.55;57.49;97307.47;29395;215;63004;-56
2024/01/22 01:28:53;;;;;;;0.70;0.70;;;;;;;1.57;57.79;97316.09;29395;221;63008;-56
2024/01/22 01:29:24;;;;;;;0.65;0.65;;;;;;;1.58;57.58;97312.38;29395;237;63005;-71
2024/01/22 01:29:55;;;;;;;0.70;0.70;;;;;;;1.59;57.60;97316.69;29395;244;63020;-56
2024/01/22 01:30:27;;;;;;;0.70;0.70;;;;;;;1.57;57.67;97313.41;29394;204;64009;-57
2024/01/22 01:31:01;;;;;;;0.70;0.70;;;;;;;1.56;57.83;97309.91;29373;209;63009;-56
2024/01/22 01:31:34;;;;;;;0.70;0.70;;;;;;;1.56;57.72;97309.09;29395;225;63005;-56
2024/01/22 01:32:06;;;;;;;0.70;0.70;;;;;;;1.56;57.74;97317.13;29394;200;64013;-57
2024/01/22 01:32:38;;;;;;;0.70;0.70;;;;;;;1.55;57.97;97312.81;29395;235;63005;-56
2024/01/22 01:33:09;;;;;;;0.80;0.80;;;;;;;1.53;58.26;97314.88;29395;295;63009;-56
2024/01/22 01:33:40;;;;;;;0.70;0.70;;;;;;;1.52;57.98;97308.72;29395;343;63004;-55
2024/01/22 01:34:11;;;;;;;0.60;0.60;;;;;;;1.50;57.99;97316.16;29395;204;63009;-56
2024/01/22 01:34:42;;;;;;;0.70;0.70;;;;;;;1.48;58.08;97317.41;29395;202;63004;-56
2024/01/22 01:35:14;;;;;;;0.70;0.70;;;;;;;1.53;58.27;97312.22;29395;244;63009;-57
2024/01/22 01:35:46;;;;;;;0.70;0.70;;;;;;;1.54;58.02;97313.84;29395;202;63004;-57
2024/01/22 01:36:17;;;;;;;0.70;0.70;;;;;;;1.53;58.16;97315.72;29395;236;63008;-56
2024/01/22 01:36:48;;;;;;;0.70;0.70;;;;;;;1.52;58.42;97314.06;29395;211;63004;-69
2024/01/22 01:37:20;;;;;;;0.70;0.70;;;;;;;1.51;58.64;97322.31;29394;229;64014;-56
2024/01/22 01:37:52;;;;;;;0.70;0.70;;;;;;;1.50;58.63;97310.81;29395;235;63005;-57
2024/01/22 01:38:24;;;;;;;0.60;0.60;;;;;;;1.49;58.73;97321.72;29395;220;63009;-56
2024/01/22 01:38:55;;;;;;;0.60;0.60;;;;;;;1.50;58.85;97315.34;29395;219;63005;-69
2024/01/22 01:39:28;;;;;;;0.60;0.60;;;;;;;1.49;58.95;97313.72;29395;219;63005;-56
2024/01/22 01:39:59;;;;;;;0.70;0.70;;;;;;;1.48;58.92;97325.44;29395;283;63005;-56
2024/01/22 01:40:31;;;;;;;0.70;0.70;;;;;;;1.45;58.95;97313.34;29395;214;63009;-56
2024/01/22 01:41:05;;;;;;;0.60;0.60;;;;;;;1.44;58.99;97316.22;29395;207;63004;-56
2024/01/22 01:41:37;;;;;;;0.60;0.60;;;;;;;1.44;59.21;97318.91;29395;292;63009;-55
2024/01/22 01:42:08;;;;;;;0.70;0.70;;;;;;;1.48;59.08;97312.06;29395;238;63004;-56
2024/01/22 01:42:43;;;;;;;0.70;0.70;;;;;;;1.50;58.88;97315.34;29394;224;64013;-70
2024/01/22 01:43:16;;;;;;;0.70;0.70;;;;;;;1.52;59.20;97311.41;29395;211;63004;-56
2024/01/22 01:43:47;;;;;;;0.70;0.70;;;;;;;1.53;59.02;97309.53;29395;199;63008;-56
2024/01/22 01:44:19;;;;;;;0.60;0.60;;;;;;;1.53;59.10;97305.00;29395;232;63004;-56
2024/01/22 01:44:52;;;;;;;0.70;0.70;;;;;;;1.55;59.14;97312.81;29395;208;63017;-56
2024/01/22 01:45:24;;;;;;;0.70;0.70;;;;;;;1.55;59.10;97312.81;29395;238;63005;-56
2024/01/22 01:45:55;;;;;;;0.70;0.70;;;;;;;1.56;59.24;97309.09;29395;243;63009;-57
2024/01/22 01:46:27;;;;;;;0.70;0.70;;;;;;;1.57;59.14;97310.72;29395;232;63005;-56
2024/01/22 01:46:58;;;;;;;0.70;0.70;;;;;;;1.55;59.14;97310.94;29395;202;63015;-56
2024/01/22 01:47:29;;;;;;;0.70;0.70;;;;;;;1.53;59.21;97310.34;29395;346;63005;-56
2024/01/22 01:48:01;;;;;;;0.70;0.70;;;;;;;1.50;59.51;97320.69;29394;242;64013;-56
2024/01/22 01:48:37;;;;;;;0.60;0.60;;;;;;;1.49;59.72;97313.72;29394;221;64009;-55
2024/01/22 01:49:09;;;;;;;0.62;0.62;;;;;;;1.48;59.68;97306.72;29395;283;63009;-56
2024/01/22 01:49:41;;;;;;;0.70;0.70;;;;;;;1.46;59.76;97317.66;29395;208;63007;-67
2024/01/22 01:50:14;;;;;;;0.60;0.60;;;;;;;1.47;59.91;97310.44;29395;208;63009;-56
2024/01/22 01:50:46;;;;;;;0.70;0.70;;;;;;;1.44;59.99;97309.03;29395;246;63004;-56
2024/01/22 01:51:19;;;;;;;0.60;0.60;;;;;;;1.44;60.22;97310.87;29395;198;63008;-56
2024/01/22 01:51:51;;;;;;;0.70;0.70;;;;;;;1.44;60.04;97305.53;29395;215;63004;-56
2024/01/22 01:52:22;;;;;;;0.70;0.70;;;;;;;1.45;59.92;97318.69;29373;328;63009;-56
2024/01/22 01:52:55;;;;;;;0.65;0.65;;;;;;;1.45;59.60;97317.87;29395;207;63005;-55
2024/01/22 01:53:27;;;;;;;0.70;0.70;;;;;;;1.45;59.71;97320.53;29395;238;63009;-56
2024/01/22 01:53:59;;;;;;;0.70;0.70;;;;;;;1.44;59.71;97321.59;29394;204;64009;-56
2024/01/22 01:54:31;;;;;;;0.60;0.60;;;;;;;1.45;59.75;97320.53;29395;212;63009;-56
2024/01/22 01:55:03;;;;;;;0.60;0.60;;;;;;;1.42;59.93;97319.13;29395;254;63005;-56
2024/01/22 01:55:37;;;;;;;0.70;0.70;;;;;;;1.42;60.04;97318.31;29395;204;63009;-56
2024/01/22 01:56:09;;;;;;;0.68;0.68;;;;;;;1.44;60.08;97321.59;29395;246;63004;-57
2024/01/22 01:56:41;;;;;;;0.70;0.70;;;;;;;1.43;60.21;97325.28;29395;199;63009;-56
2024/01/22 01:57:14;;;;;;;0.70;0.70;;;;;;;1.41;60.18;97327.38;29395;214;63004;-55
2024/01/22 01:57:46;;;;;;;0.70;0.70;;;;;;;1.40;60.43;97318.53;29395;208;63009;-55
2024/01/22 01:58:19;;;;;;;0.68;0.68;;;;;;;1.40;60.42;97320.38;29395;241;63004;-56
2024/01/22 01:58:52;;;;;;;0.70;0.70;;;;;;;1.39;60.61;97322.25;29395;211;63008;-56
2024/01/22 01:59:24;;;;;;;0.60;0.60;;;;;;;1.37;60.55;97320.88;29394;244;64008;-68
2024/01/22 02:00:00;;;;;;;0.70;0.70;;;;;;;1.36;60.72;97327.25;29395;299;63009;-70
2024/01/22 02:00:32;;;;;;;0.60;0.60;;;;;;;1.36;60.67;97319.22;29395;232;63005;-56
2024/01/22 02:01:06;;;;;;;0.70;0.70;;;;;;;1.36;60.70;97325.41;29395;220;63009;-56
2024/01/22 02:01:37;;;;;;;0.60;0.60;;;;;;;1.39;60.76;97326.81;29395;216;63005;-56
2024/01/22 02:02:08;;;;;;;0.80;0.80;;;;;;;1.39;60.70;97324.13;29395;240;63009;-56
2024/01/22 02:03:48;;;;;;;0.70;0.70;;;;;;;1.37;60.96;97320.88;88174;197;64005;-55
2024/01/22 02:04:19;;;;;;;0.70;0.70;;;;;;;1.36;60.85;97324.59;29394;271;64008;-55
2024/01/22 02:04:50;;;;;;;0.70;0.70;;;;;;;1.34;61.01;97322.94;29394;210;64009;-56
2024/01/22 02:05:22;;;;;;;0.70;0.70;;;;;;;1.35;61.13;97318.41;29395;210;63005;-55
2024/01/22 02:05:53;;;;;;;0.70;0.70;;;;;;;1.36;61.24;97324.59;29395;240;63016;-55
2024/01/22 02:06:24;;;;;;;0.70;0.70;;;;;;;1.36;61.22;97319.22;29395;197;63009;-56
2024/01/22 02:07:00;;;;;;;0.70;0.70;;;;;;;1.37;60.94;97318.19;29395;260;63005;-55
2024/01/22 02:07:31;;;;;;;0.60;0.60;;;;;;;1.35;60.81;97313.06;29395;271;63009;-55
2024/01/22 02:08:03;;;;;;;0.70;0.70;;;;;;;1.36;61.06;97313.88;29373;206;63005;-55
2024/01/22 02:08:36;;;;;;;0.70;0.70;;;;;;;1.39;60.63;97305.41;29395;203;63009;-54
2024/01/22 02:09:07;;;;;;;0.68;0.68;;;;;;;1.40;60.47;97301.69;29395;202;63004;-55
2024/01/22 02:09:49;;;;;;;3.33;1.80;;;;;;;1.41;60.53;97308.66;29395;233;63009;-56
2024/01/22 02:10:20;;;;;;;0.70;0.70;;;;;;;1.43;60.77;97301.22;29394;208;64009;-56
2024/01/22 02:10:51;;;;;;;0.60;0.60;;;;;;;1.44;60.43;97301.00;29395;231;63009;-55
2024/01/22 02:11:23;;;;;;;0.60;0.60;;;;;;;1.47;60.48;97299.75;29395;211;63004;-55
2024/01/22 02:11:54;;;;;;;0.70;0.70;;;;;;;1.48;60.34;97310.22;29395;214;63008;-55
2024/01/22 02:12:25;;;;;;;0.70;0.70;;;;;;;1.48;60.45;97306.72;29395;206;63005;-55
2024/01/22 02:12:56;;;;;;;0.65;0.65;;;;;;;1.47;60.35;97308.59;29395;244;63009;-55
2024/01/22 02:13:29;;;;;;;0.60;0.60;;;;;;;1.46;60.45;97309.63;29395;281;63005;-55
2024/01/22 02:14:00;;;;;;;0.70;0.70;;;;;;;1.45;60.46;97301.81;29395;280;63009;-54
2024/01/22 02:14:31;;;;;;;0.70;0.70;;;;;;;1.45;60.52;97307.16;29395;320;63005;-54
2024/01/22 02:15:04;;;;;;;0.60;0.60;;;;;;;1.43;60.92;97303.91;29395;209;63009;-67
2024/01/22 02:15:35;;;;;;;0.70;0.70;;;;;;;1.41;60.74;97301.44;29394;238;64009;-55
2024/01/22 02:16:06;;;;;;;0.62;0.62;;;;;;;1.41;60.98;97305.97;29395;218;63009;-56
2024/01/22 02:16:38;;;;;;;0.62;0.62;;;;;;;1.40;60.85;97307.03;29395;206;63004;-57
2024/01/22 02:17:09;;;;;;;0.70;0.70;;;;;;;1.39;60.92;97303.53;29395;202;63009;-56
2024/01/22 02:17:40;;;;;;;0.60;0.60;;;;;;;1.41;61.17;97297.97;29395;196;63004;-56
2024/01/22 02:18:12;;;;;;;0.70;0.70;;;;;;;1.44;60.85;97300.19;29395;233;63009;-56
2024/01/22 02:18:43;;;;;;;0.60;0.60;;;;;;;1.48;60.65;97301.38;29395;245;63004;-55
2024/01/22 02:19:15;;;;;;;0.65;0.65;;;;;;;1.48;60.54;97298.69;29395;235;63008;-56
2024/01/22 02:19:50;;;;;;;0.60;0.60;;;;;;;1.49;60.87;97295.00;29395;215;63004;-55
2024/01/22 02:20:21;;;;;;;0.60;0.60;;;;;;;1.51;60.97;97295.59;29395;226;63009;-55
2024/01/22 02:20:54;;;;;;;0.60;0.60;;;;;;;1.52;61.00;97297.22;29394;312;64009;-55
2024/01/22 02:21:25;;;;;;;0.60;0.60;;;;;;;1.52;60.78;97298.03;29395;197;63009;-55
2024/01/22 02:21:57;;;;;;;0.70;0.70;;;;;;;1.49;61.09;97295.00;29395;202;63005;-55
2024/01/22 02:22:29;;;;;;;0.60;0.60;;;;;;;1.49;61.00;97297.66;29394;198;64013;-55
2024/01/22 02:23:07;;;;;;;0.60;0.60;;;;;;;1.51;61.16;97295.59;29395;237;63005;-55
2024/01/22 02:23:38;;;;;;;0.70;0.70;;;;;;;1.51;61.46;97290.22;29395;232;63009;-57
2024/01/22 02:24:09;;;;;;;0.70;0.70;;;;;;;1.53;61.10;97288.97;29395;220;63004;-57
2024/01/22 02:24:41;;;;;;;0.60;0.60;;;;;;;1.61;61.09;97287.84;29395;225;63009;-57
2024/01/22 02:25:13;;;;;;;0.60;0.60;;;;;;;1.67;60.74;97289.63;29395;217;63004;-56
2024/01/22 02:25:45;;;;;;;0.70;0.70;;;;;;;1.70;60.69;97291.84;29395;232;63009;-70
2024/01/22 02:26:16;;;;;;;0.60;0.60;;;;;;;1.74;60.88;97297.53;29394;259;64008;-56
2024/01/22 02:26:48;;;;;;;0.60;0.60;;;;;;;1.72;61.30;97308.47;29395;262;63008;-56
2024/01/22 02:27:19;;;;;;;0.60;0.60;;;;;;;1.69;61.42;97303.59;29395;218;63004;-56
2024/01/22 02:27:51;;;;;;;0.60;0.60;;;;;;;1.68;60.96;97301.94;29395;205;63009;-70
2024/01/22 02:28:23;;;;;;;0.70;0.70;;;;;;;1.66;61.25;97302.19;29395;198;63009;-56
2024/01/22 02:28:54;;;;;;;0.70;0.70;;;;;;;1.64;61.42;97298.09;29395;199;63009;-56
2024/01/22 02:29:25;;;;;;;0.60;0.60;;;;;;;1.65;61.38;97307.75;29395;200;63005;-56
2024/01/22 02:29:57;;;;;;;0.70;0.70;;;;;;;1.65;61.21;97307.75;29395;202;63009;-55
2024/01/22 02:30:28;;;;;;;0.70;0.70;;;;;;;1.65;61.23;97313.91;29395;221;63005;-55
2024/01/22 02:31:02;;;;;;;0.60;0.60;;;;;;;1.65;61.50;97313.09;29395;222;63018;-55
2024/01/22 02:31:34;;;;;;;0.70;0.70;;;;;;;1.64;61.31;97319.50;29394;340;64009;-56
2024/01/22 02:32:06;;;;;;;0.70;0.70;;;;;;;1.63;61.31;97318.69;29395;220;63009;-55
2024/01/22 02:32:37;;;;;;;0.70;0.70;;;;;;;1.63;61.30;97321.34;29395;205;63004;-68
2024/01/22 02:33:08;;;;;;;0.68;0.68;;;;;;;1.64;62.05;97322.16;29395;249;63009;-56
2024/01/22 02:33:40;;;;;;;0.60;0.60;;;;;;;1.63;61.97;97321.34;29395;202;63004;-57
2024/01/22 02:34:12;;;;;;;0.60;0.60;;;;;;;1.64;61.82;97324.84;29395;202;63009;-57
2024/01/22 02:34:43;;;;;;;0.70;0.70;;;;;;;1.64;62.06;97322.16;29395;273;63005;-55